Time;durP1;ratioP1;P1;durP2;ratioP2;P2;SDS_P1;SDS_P2;PMS_P1;PMS_P2;Temp;Humidity;BMP_temperature;BMP_pressure;BME280_temperature;BME280_humidity;BME280_pressure;Samples;Min_cycle;Max_cycle;Signal;HPM_P1;HPM_P2
2022/09/11 00:01:51;;;;;;;9.10;8.20;;;14.40;99.90;;;-142.72;100.00;65101.41;4945720;28;20435;-71
2022/09/11 00:04:19;;;;;;;10.97;6.80;;;14.40;99.90;;;-142.72;100.00;65101.41;4956155;28;20532;-73
2022/09/11 00:06:48;;;;;;;9.90;8.30;;;14.40;99.90;;;-142.72;100.00;65101.41;4945001;28;20418;-72
2022/09/11 00:09:17;;;;;;;9.43;8.53;;;14.40;99.90;;;-142.72;100.00;65101.41;4953180;28;20466;-73
2022/09/11 00:11:46;;;;;;;9.37;7.50;;;14.40;99.90;;;-142.72;100.00;65101.41;4951013;28;20963;-71
2022/09/11 00:14:15;;;;;;;11.30;10.20;;;14.40;99.90;;;-142.72;100.00;65101.41;4950137;28;20544;-73
2022/09/11 00:16:46;;;;;;;8.47;7.40;;;14.50;99.90;;;-142.72;100.00;65101.41;4943135;28;20487;-72
2022/09/11 00:19:18;;;;;;;8.83;7.43;;;14.50;99.90;;;-142.72;100.00;65101.41;4952807;28;20502;-73
2022/09/11 00:21:48;;;;;;;13.10;9.67;;;14.50;99.90;;;-142.72;100.00;65101.41;4948671;28;20467;-71
2022/09/11 00:24:17;;;;;;;9.93;7.70;;;14.50;99.90;;;-142.72;100.00;65101.41;4949047;28;20464;-72
2022/09/11 00:26:46;;;;;;;9.23;8.23;;;14.60;99.90;;;-142.72;100.00;65101.41;4949426;28;20432;-70
2022/09/11 00:29:15;;;;;;;15.47;9.50;;;14.50;99.90;;;-142.72;100.00;65101.41;4947626;28;20485;-73
2022/09/11 00:31:45;;;;;;;13.93;8.97;;;14.50;99.90;;;-142.72;100.00;65101.41;4950568;28;20802;-70
2022/09/11 00:34:14;;;;;;;11.10;8.90;;;14.50;99.90;;;-142.72;100.00;65101.41;4944744;28;20586;-71
2022/09/11 00:36:43;;;;;;;9.43;8.47;;;14.50;99.90;;;-142.72;100.00;65101.41;4952160;28;20447;-72
2022/09/11 00:39:13;;;;;;;10.20;9.20;;;14.50;99.90;;;-142.72;100.00;65101.41;4950033;28;20814;-72
2022/09/11 00:41:45;;;;;;;11.50;8.20;;;14.50;99.90;;;-142.72;100.00;65101.41;4949572;28;20435;-71
2022/09/11 00:44:59;;;;;;;15.93;9.33;;;14.50;99.90;;;-142.72;100.00;65101.41;4963443;28;21166;-71
2022/09/11 00:47:31;;;;;;;10.43;9.10;;;14.50;99.90;;;-142.72;100.00;65101.41;4946620;28;20939;-72
2022/09/11 00:50:11;;;;;;;14.03;9.57;;;14.50;99.90;;;-142.72;100.00;65101.41;4952740;28;20917;-71
2022/09/11 00:52:51;;;;;;;11.10;8.60;;;14.50;99.90;;;-142.72;100.00;65101.41;4949327;28;20472;-71
2022/09/11 00:55:26;;;;;;;13.83;9.37;;;14.40;99.90;;;-142.72;100.00;65101.41;4943170;28;20464;-71
2022/09/11 00:58:03;;;;;;;9.00;8.10;;;14.50;99.90;;;-142.72;100.00;65101.41;4951416;28;20433;-72
2022/09/11 01:00:32;;;;;;;14.23;9.30;;;14.50;99.90;;;-142.72;100.00;65101.41;4949399;28;20413;-71
2022/09/11 01:03:03;;;;;;;7.90;7.17;;;14.50;99.90;;;-142.72;100.00;65101.41;4968400;28;20431;-71
2022/09/11 01:05:33;;;;;;;9.50;8.07;;;14.40;99.90;;;-142.72;100.00;65101.41;4949779;28;20470;-72
2022/09/11 01:08:03;;;;;;;9.00;7.53;;;14.50;99.90;;;-142.72;100.00;65101.41;4951919;28;20896;-71
2022/09/11 01:10:43;;;;;;;8.80;7.83;;;14.50;99.90;;;-142.72;100.00;65101.41;4945030;28;20458;-72
2022/09/11 01:13:26;;;;;;;11.20;7.97;;;14.50;99.90;;;-142.72;100.00;65101.41;4954078;28;20505;-71
2022/09/11 01:16:08;;;;;;;9.23;8.23;;;14.60;99.90;;;-142.72;100.00;65101.41;4952730;28;20424;-70
2022/09/11 01:18:48;;;;;;;9.00;8.13;;;14.50;99.90;;;-142.72;100.00;65101.41;4953706;28;20564;-71
2022/09/11 01:21:51;;;;;;;10.83;8.33;;;14.50;99.90;;;-142.72;100.00;65101.41;4947271;28;20459;-71
2022/09/11 01:24:48;;;;;;;9.00;8.10;;;14.50;99.90;;;-142.72;100.00;65101.41;4945225;28;20479;-71
2022/09/11 01:27:51;;;;;;;10.03;7.30;;;14.50;99.90;;;-142.72;100.00;65101.41;4969516;28;20455;-72
2022/09/11 01:30:22;;;;;;;8.43;7.63;;;14.40;99.90;;;-142.72;100.00;65101.41;4888567;29;20425;-72
2022/09/11 01:33:11;;;;;;;7.83;7.10;;;14.40;99.90;;;-142.72;100.00;65101.41;4940905;28;20522;-71
2022/09/11 01:35:56;;;;;;;11.93;8.03;;;14.40;99.90;;;-142.72;100.00;65101.41;4963452;28;20456;-71
2022/09/11 01:38:36;;;;;;;9.47;8.17;;;14.40;99.90;;;-142.72;100.00;65101.41;4949101;28;20436;-71
2022/09/11 01:41:13;;;;;;;9.67;8.50;;;14.30;99.90;;;-142.72;100.00;65101.41;4950352;28;20470;-71
2022/09/11 01:43:51;;;;;;;11.40;8.90;;;14.30;99.90;;;-142.72;100.00;65101.41;4955821;28;20551;-73
2022/09/11 01:46:25;;;;;;;11.13;8.73;;;14.20;99.90;;;-142.72;100.00;65101.41;4949083;28;20778;-72
2022/09/11 01:49:03;;;;;;;8.63;7.03;;;14.20;99.90;;;-142.72;100.00;65101.41;4952568;28;20455;-72
2022/09/11 01:51:36;;;;;;;10.57;7.80;;;14.20;99.90;;;-142.72;100.00;65101.41;4951260;28;20488;-72
2022/09/11 01:54:13;;;;;;;11.17;7.27;;;14.10;99.90;;;-142.72;100.00;65101.41;4953301;28;20479;-72
2022/09/11 01:56:48;;;;;;;12.43;8.60;;;14.10;99.90;;;-142.72;100.00;65101.41;4948468;28;20430;-72
2022/09/11 01:59:26;;;;;;;10.27;7.90;;;14.10;99.90;;;-142.72;100.00;65101.41;4952131;28;20448;-72
2022/09/11 02:02:05;;;;;;;8.83;6.47;;;14.00;99.90;;;-142.72;100.00;65101.41;4950746;28;20450;-73
2022/09/11 02:04:43;;;;;;;7.97;7.17;;;14.00;99.90;;;-142.72;100.00;65101.41;4952288;28;20466;-71
2022/09/11 02:07:19;;;;;;;8.90;7.50;;;14.00;99.90;;;-142.72;100.00;65101.41;4955525;28;20454;-71
2022/09/11 02:09:58;;;;;;;10.30;7.40;;;14.00;99.90;;;-142.72;100.00;65101.41;4963720;28;20502;-71
2022/09/11 02:12:40;;;;;;;9.67;6.57;;;13.90;99.90;;;-142.72;100.00;65101.41;4947811;28;20471;-71
2022/09/11 02:15:16;;;;;;;8.57;7.63;;;13.90;99.90;;;-142.72;100.00;65101.41;4963342;28;20525;-70
2022/09/11 02:18:00;;;;;;;8.03;6.17;;;13.80;99.90;;;-142.72;100.00;65101.41;4950929;28;20459;-71
2022/09/11 02:20:30;;;;;;;9.20;7.30;;;13.70;99.90;;;-142.72;100.00;65101.41;4947622;28;20538;-71
2022/09/11 02:22:59;;;;;;;7.07;6.37;;;13.70;99.90;;;-142.72;100.00;65101.41;4947668;28;20424;-72
2022/09/11 02:25:28;;;;;;;9.57;6.23;;;13.60;99.90;;;-142.72;100.00;65101.41;4946589;28;20491;-72
2022/09/11 02:27:57;;;;;;;8.50;6.37;;;13.60;99.90;;;-142.72;100.00;65101.41;4937110;28;20427;-71
2022/09/11 02:30:28;;;;;;;11.63;6.93;;;13.60;99.90;;;-142.72;100.00;65101.41;4949459;28;20971;-71
2022/09/11 02:32:57;;;;;;;10.77;7.40;;;13.60;99.90;;;-142.72;100.00;65101.41;4942189;28;21048;-70
2022/09/11 02:35:40;;;;;;;7.83;7.03;;;13.50;99.90;;;-142.72;100.00;65101.41;4950211;28;20438;-70
2022/09/11 02:38:21;;;;;;;8.13;6.73;;;13.50;99.90;;;-142.72;100.00;65101.41;4944749;28;20430;-72
2022/09/11 02:41:01;;;;;;;8.80;7.90;;;13.50;99.90;;;-142.72;100.00;65101.41;4962550;28;20455;-72
2022/09/11 02:43:51;;;;;;;8.03;6.30;;;13.50;99.90;;;-142.72;100.00;65101.41;4950113;28;20447;-72
2022/09/11 02:46:50;;;;;;;10.80;7.77;;;13.50;99.90;;;-142.72;100.00;65101.41;4939946;28;20464;-71
2022/09/11 02:49:37;;;;;;;8.87;7.87;;;13.50;99.90;;;-142.72;100.00;65101.41;4949657;28;20448;-71
2022/09/11 02:52:22;;;;;;;8.93;6.80;;;13.40;99.90;;;-142.72;100.00;65101.41;4965264;28;20522;-72
2022/09/11 02:55:01;;;;;;;9.17;8.30;;;13.40;99.90;;;-142.72;100.00;65101.41;4946020;28;20525;-70
2022/09/11 02:57:39;;;;;;;11.03;8.80;;;13.40;99.90;;;-142.72;100.00;65101.41;4947400;28;20561;-71
2022/09/11 03:00:11;;;;;;;13.20;10.63;;;13.40;99.90;;;-142.72;100.00;65101.41;4947951;28;20421;-70
2022/09/11 03:02:44;;;;;;;14.33;10.30;;;13.50;99.90;;;-142.72;100.00;65101.41;4948372;28;20847;-71
2022/09/11 03:05:13;;;;;;;15.30;10.87;;;13.50;99.90;;;-142.72;100.00;65101.41;4961603;28;20899;-71
2022/09/11 03:07:42;;;;;;;14.57;11.07;;;13.60;99.90;;;-142.72;100.00;65101.41;4938094;28;20936;-70
2022/09/11 03:10:11;;;;;;;13.77;10.47;;;13.50;99.90;;;-142.72;100.00;65101.41;4943520;28;20459;-71
2022/09/11 03:12:41;;;;;;;12.37;9.13;;;13.50;99.90;;;-142.72;100.00;65101.41;4944351;28;20473;-71
2022/09/11 03:15:12;;;;;;;13.40;9.80;;;13.40;99.90;;;-142.72;100.00;65101.41;4950278;28;21027;-71
2022/09/11 03:17:44;;;;;;;13.73;10.40;;;13.40;99.90;;;-142.72;100.00;65101.41;4946939;28;20458;-72
2022/09/11 03:20:15;;;;;;;12.80;9.27;;;13.30;99.90;;;-142.72;100.00;65101.41;4956355;28;20429;-71
2022/09/11 03:22:47;;;;;;;14.97;10.90;;;13.30;99.90;;;-142.72;100.00;65101.41;4952982;28;20433;-72
2022/09/11 03:25:16;;;;;;;13.87;10.90;;;13.30;99.90;;;-142.72;100.00;65101.41;4947697;28;21031;-72
2022/09/11 03:27:48;;;;;;;14.20;10.80;;;13.30;99.90;;;-142.72;100.00;65101.41;4947868;28;20591;-73
2022/09/11 03:30:18;;;;;;;13.43;12.00;;;13.30;99.90;;;-142.72;100.00;65101.41;4952131;28;20414;-72
2022/09/11 03:32:50;;;;;;;15.17;12.03;;;13.20;99.90;;;-142.72;100.00;65101.41;4953544;28;20446;-71
2022/09/11 03:35:19;;;;;;;17.07;12.00;;;13.20;99.90;;;-142.72;100.00;65101.41;4942628;28;20479;-72
2022/09/11 03:37:49;;;;;;;19.97;13.07;;;13.20;99.90;;;-142.72;100.00;65101.41;4945056;28;20463;-72
2022/09/11 03:40:19;;;;;;;15.33;13.30;;;13.30;99.90;;;-142.72;100.00;65101.41;4957149;28;20521;-71
2022/09/11 03:42:48;;;;;;;25.20;16.20;;;13.20;99.90;;;-142.72;100.00;65101.41;4940274;28;20426;-71
2022/09/11 03:45:18;;;;;;;19.43;13.53;;;13.20;99.90;;;-142.72;100.00;65101.41;4957633;28;20459;-72
2022/09/11 03:47:47;;;;;;;19.67;13.93;;;13.20;99.90;;;-142.72;100.00;65101.41;4954738;28;20911;-72
2022/09/11 03:50:18;;;;;;;18.30;13.40;;;13.10;99.90;;;-142.72;100.00;65101.41;4944252;28;20430;-71
2022/09/11 03:52:47;;;;;;;18.57;14.70;;;13.00;99.90;;;-142.72;100.00;65101.41;4957626;28;20928;-73
2022/09/11 03:55:18;;;;;;;19.50;12.90;;;13.00;99.90;;;-142.72;100.00;65101.41;4957626;28;20829;-71
2022/09/11 03:57:47;;;;;;;21.20;13.73;;;13.00;99.90;;;-142.72;100.00;65101.41;4951277;28;20804;-70
2022/09/11 04:00:16;;;;;;;21.97;13.00;;;13.00;99.90;;;-142.72;100.00;65101.41;4946702;28;20426;-73
2022/09/11 04:02:48;;;;;;;16.00;12.07;;;13.10;99.90;;;-142.72;100.00;65101.41;4962294;28;20467;-71
2022/09/11 04:05:35;;;;;;;23.50;13.47;;;13.10;99.90;;;-142.72;100.00;65101.41;4949233;28;20462;-72
2022/09/11 04:08:05;;;;;;;15.50;11.73;;;13.10;99.90;;;-142.72;100.00;65101.41;4951837;28;20450;-71
2022/09/11 04:10:35;;;;;;;19.90;11.87;;;13.10;99.90;;;-142.72;100.00;65101.41;4969022;28;20499;-72
2022/09/11 04:13:05;;;;;;;16.30;10.90;;;13.10;99.90;;;-142.72;100.00;65101.41;4949398;28;20439;-72
2022/09/11 04:15:34;;;;;;;16.43;11.53;;;13.10;99.90;;;-142.72;100.00;65101.41;4956228;28;20828;-71
2022/09/11 04:18:06;;;;;;;20.13;11.03;;;13.20;99.90;;;-142.72;100.00;65101.41;4965938;28;20452;-73
2022/09/11 04:20:40;;;;;;;21.27;11.43;;;13.20;99.90;;;-142.72;100.00;65101.41;4951868;28;20439;-71
2022/09/11 04:23:09;;;;;;;23.63;12.97;;;13.20;99.90;;;-142.72;100.00;65101.41;4948238;28;20418;-73
2022/09/11 04:25:38;;;;;;;18.93;12.00;;;13.20;99.90;;;-142.72;100.00;65101.41;4944503;28;20467;-72
2022/09/11 04:28:07;;;;;;;20.70;12.37;;;13.20;99.90;;;-142.72;100.00;65101.41;4947226;28;20442;-72
2022/09/11 04:30:37;;;;;;;16.53;11.40;;;13.20;99.90;;;-142.72;100.00;65101.41;4950992;28;20452;-72
2022/09/11 04:33:07;;;;;;;20.33;12.43;;;13.20;99.90;;;-142.72;100.00;65101.41;4945154;28;20502;-72
2022/09/11 04:35:40;;;;;;;24.10;12.00;;;13.30;99.90;;;-142.72;100.00;65101.41;4952617;28;20479;-71
2022/09/11 04:38:09;;;;;;;22.33;13.33;;;13.40;99.90;;;-142.72;100.00;65101.41;4954238;28;20413;-72
2022/09/11 04:40:39;;;;;;;22.97;12.70;;;13.50;99.90;;;-142.72;100.00;65101.41;4952608;28;20414;-71
2022/09/11 04:43:08;;;;;;;26.97;14.37;;;13.40;99.90;;;-142.72;100.00;65101.41;4956172;28;20508;-70
2022/09/11 04:45:39;;;;;;;24.27;14.20;;;13.50;99.90;;;-142.72;100.00;65101.41;4950998;28;20834;-72
2022/09/11 04:48:10;;;;;;;23.13;15.13;;;13.50;99.90;;;-142.72;100.00;65101.41;4955417;28;20453;-72
2022/09/11 04:50:41;;;;;;;22.13;13.83;;;13.50;99.90;;;-142.72;100.00;65101.41;4955459;28;20703;-72
2022/09/11 04:53:19;;;;;;;25.17;14.27;;;13.50;99.90;;;-142.72;100.00;65101.41;4950783;28;20435;-71
2022/09/11 04:55:49;;;;;;;22.20;14.27;;;13.50;99.90;;;-142.72;100.00;65101.41;4966950;28;20452;-72
2022/09/11 04:58:18;;;;;;;29.63;14.43;;;13.50;99.90;;;-142.72;100.00;65101.41;4949271;28;20490;-72
2022/09/11 05:00:47;;;;;;;26.33;14.90;;;13.60;99.90;;;-142.72;100.00;65101.41;4954345;28;20443;-71
2022/09/11 05:03:16;;;;;;;25.73;13.80;;;13.70;99.90;;;-142.72;100.00;65101.41;4950430;28;20443;-71
2022/09/11 05:05:47;;;;;;;25.20;13.97;;;13.80;99.90;;;-142.72;100.00;65101.41;4953559;28;20463;-73
2022/09/11 05:08:17;;;;;;;26.43;14.37;;;13.80;99.90;;;-142.72;100.00;65101.41;4951834;28;20472;-72
2022/09/11 05:10:48;;;;;;;26.70;14.80;;;13.90;99.90;;;-142.72;100.00;65101.41;4949462;28;20489;-73
2022/09/11 05:13:17;;;;;;;18.27;13.10;;;13.90;99.90;;;-142.72;100.00;65101.41;4950871;28;20456;-71
2022/09/11 05:15:46;;;;;;;21.70;14.30;;;14.00;99.90;;;-142.72;100.00;65101.41;4948131;28;20770;-71
2022/09/11 05:18:17;;;;;;;29.90;14.70;;;14.00;99.90;;;-142.72;100.00;65101.41;4947324;29;20433;-71
2022/09/11 05:20:47;;;;;;;25.73;14.53;;;14.10;99.90;;;-142.72;100.00;65101.41;4949106;28;20441;-71
2022/09/11 05:23:16;;;;;;;22.87;14.77;;;14.10;99.90;;;-142.72;100.00;65101.41;4947701;28;20439;-73
2022/09/11 05:25:46;;;;;;;21.33;14.00;;;14.10;99.90;;;-142.72;100.00;65101.41;4949271;28;20490;-71
2022/09/11 05:28:16;;;;;;;22.33;14.30;;;14.20;99.90;;;-142.72;100.00;65101.41;4952260;28;20441;-72
2022/09/11 05:30:45;;;;;;;22.50;15.13;;;14.30;99.90;;;-142.72;100.00;65101.41;4951750;28;20945;-71
2022/09/11 05:33:14;;;;;;;29.70;15.27;;;14.30;99.90;;;-142.72;100.00;65101.41;4947241;28;20425;-71
2022/09/11 05:35:43;;;;;;;27.57;14.83;;;14.40;99.90;;;-142.72;100.00;65101.41;4949845;28;20460;-72
2022/09/11 05:38:13;;;;;;;21.87;13.93;;;14.40;99.90;;;-142.72;100.00;65101.41;4951452;28;20459;-72
2022/09/11 05:40:45;;;;;;;26.80;15.23;;;14.40;99.90;;;-142.72;100.00;65101.41;4950621;28;20428;-71
2022/09/11 05:43:15;;;;;;;28.23;17.00;;;14.30;99.90;;;-142.72;100.00;65101.41;4962222;28;21030;-72
2022/09/11 05:45:44;;;;;;;34.37;17.33;;;14.30;99.90;;;-142.72;100.00;65101.41;4953690;28;20438;-70
2022/09/11 05:48:15;;;;;;;24.10;16.97;;;14.30;99.90;;;-142.72;100.00;65101.41;4947054;28;20452;-71
2022/09/11 05:50:52;;;;;;;28.17;17.37;;;14.40;99.90;;;-142.72;100.00;65101.41;4947692;28;20419;-73
2022/09/11 05:53:24;;;;;;;26.50;16.63;;;14.40;99.90;;;-142.72;100.00;65101.41;4952720;28;21116;-72
2022/09/11 05:55:53;;;;;;;28.70;16.60;;;14.50;99.90;;;-142.72;100.00;65101.41;4959369;28;20551;-72
2022/09/11 05:58:25;;;;;;;29.17;16.60;;;14.50;99.90;;;-142.72;100.00;65101.41;4959156;28;20952;-72
2022/09/11 06:01:03;;;;;;;30.40;17.63;;;14.60;99.90;;;-142.72;100.00;65101.41;4961198;28;20460;-72
2022/09/11 06:03:35;;;;;;;34.73;19.60;;;14.70;99.90;;;-142.72;100.00;65101.41;4955180;28;20927;-73
2022/09/11 06:06:06;;;;;;;31.57;16.47;;;14.70;99.90;;;-142.72;100.00;65101.41;4958381;28;20430;-72
2022/09/11 06:08:38;;;;;;;32.20;19.80;;;14.70;99.90;;;-142.72;100.00;65101.41;4956179;28;20430;-73
2022/09/11 06:11:08;;;;;;;24.83;16.07;;;14.70;99.90;;;-142.72;100.00;65101.41;4946860;28;20450;-72
2022/09/11 06:13:41;;;;;;;26.30;16.30;;;14.70;99.90;;;-142.72;100.00;65101.41;4929147;28;20970;-72
2022/09/11 06:16:15;;;;;;;28.67;17.87;;;14.80;99.90;;;-142.72;100.00;65101.41;4964085;28;20482;-73
2022/09/11 06:18:48;;;;;;;38.00;16.73;;;14.90;99.90;;;-142.72;100.00;65101.41;4965395;28;20442;-71
2022/09/11 06:21:22;;;;;;;33.03;17.67;;;15.00;99.90;;;-142.72;100.00;65101.41;4946680;28;20460;-73
2022/09/11 06:24:00;;;;;;;27.70;16.50;;;15.10;99.90;;;-142.72;100.00;65101.41;4949429;28;20582;-72
2022/09/11 06:26:29;;;;;;;29.73;17.37;;;15.00;99.90;;;-142.72;100.00;65101.41;4946443;28;20985;-72
2022/09/11 06:28:58;;;;;;;26.30;16.70;;;15.10;99.90;;;-142.72;100.00;65101.41;4950280;28;20426;-71
2022/09/11 06:31:28;;;;;;;29.60;19.00;;;15.10;99.90;;;-142.72;100.00;65101.41;4950352;28;20458;-71
2022/09/11 06:33:57;;;;;;;23.33;18.20;;;15.10;99.90;;;-142.72;100.00;65101.41;4942595;28;21029;-71
2022/09/11 06:36:28;;;;;;;23.30;17.03;;;15.20;99.90;;;-142.72;100.00;65101.41;4949342;28;20491;-72
2022/09/11 06:39:01;;;;;;;23.07;15.50;;;15.20;99.90;;;-142.72;100.00;65101.41;4953693;28;20480;-72
2022/09/11 06:41:30;;;;;;;22.03;15.17;;;15.20;99.90;;;-142.72;100.00;65101.41;4956304;28;20488;-72
2022/09/11 06:44:06;;;;;;;26.87;17.93;;;15.20;99.90;;;-142.72;100.00;65101.41;4950605;28;20785;-71
2022/09/11 06:46:35;;;;;;;24.60;17.97;;;15.30;99.90;;;-142.72;100.00;65101.41;4951165;28;20455;-71
2022/09/11 06:49:05;;;;;;;25.50;19.87;;;15.30;99.90;;;-142.72;100.00;65101.41;4950790;28;20422;-72
2022/09/11 06:51:44;;;;;;;25.70;18.10;;;15.40;99.90;;;-142.72;100.00;65101.41;4946991;28;20451;-72
2022/09/11 06:54:18;;;;;;;24.53;16.37;;;15.40;99.90;;;-142.72;100.00;65101.41;4949721;28;20514;-73
2022/09/11 06:56:47;;;;;;;21.47;15.67;;;15.50;99.90;;;-142.72;100.00;65101.41;4952561;28;21188;-73
2022/09/11 06:59:16;;;;;;;30.67;18.93;;;15.60;99.90;;;-142.72;100.00;65101.41;4945964;28;20533;-72
2022/09/11 07:01:45;;;;;;;28.10;16.43;;;15.70;99.90;;;-142.72;100.00;65101.41;4944397;28;20466;-72
2022/09/11 07:04:15;;;;;;;22.37;15.17;;;15.70;99.90;;;-142.72;100.00;65101.41;4951298;28;20476;-72
2022/09/11 07:06:44;;;;;;;24.13;17.50;;;15.70;99.90;;;-142.72;100.00;65101.41;4945643;28;20607;-72
2022/09/11 07:09:15;;;;;;;22.80;17.10;;;15.70;99.90;;;-142.72;100.00;65101.41;4957203;28;21013;-71
2022/09/11 07:11:52;;;;;;;19.17;13.67;;;15.70;99.90;;;-142.72;100.00;65101.41;4939287;28;20803;-73
2022/09/11 07:14:22;;;;;;;21.07;14.10;;;15.60;99.90;;;-142.72;100.00;65101.41;4951899;28;20466;-71
2022/09/11 07:16:55;;;;;;;20.00;14.40;;;15.70;99.90;;;-142.72;100.00;65101.41;4969327;28;20534;-71
2022/09/11 07:19:26;;;;;;;30.37;17.13;;;15.70;99.90;;;-142.72;100.00;65101.41;4948860;28;20441;-72
2022/09/11 07:21:55;;;;;;;19.37;14.80;;;15.70;99.90;;;-142.72;100.00;65101.41;4951904;28;20433;-71
2022/09/11 07:24:26;;;;;;;16.53;13.80;;;15.80;99.90;;;-142.72;100.00;65101.41;4938629;28;20443;-72
2022/09/11 07:26:57;;;;;;;25.37;14.00;;;15.90;99.90;;;-142.72;100.00;65101.41;4958401;28;20963;-73
2022/09/11 07:29:30;;;;;;;18.83;14.20;;;16.10;99.90;;;-142.72;100.00;65101.41;4951036;28;20450;-71
2022/09/11 07:31:59;;;;;;;17.70;12.77;;;16.20;99.90;;;-142.72;100.00;65101.41;4944796;28;20438;-72
2022/09/11 07:34:28;;;;;;;19.43;12.43;;;16.40;99.90;;;-142.72;100.00;65101.41;4947992;28;20506;-72
2022/09/11 07:37:02;;;;;;;18.53;13.50;;;16.60;99.90;;;-142.72;100.00;65101.41;4946905;29;20490;-73
2022/09/11 07:39:31;;;;;;;19.13;13.50;;;16.80;99.90;;;-142.72;100.00;65101.41;4966133;28;20448;-71
2022/09/11 07:42:07;;;;;;;18.43;13.87;;;16.90;99.90;;;-142.72;100.00;65101.41;4949551;28;20795;-72
2022/09/11 07:44:37;;;;;;;19.50;13.07;;;17.10;99.90;;;-142.72;100.00;65101.41;4976673;23;20493;-72
2022/09/11 07:47:07;;;;;;;20.70;13.67;;;17.30;1.00;;;-142.72;100.00;65101.41;4955115;28;20447;-73
2022/09/11 07:49:42;;;;;;;19.53;14.30;;;17.20;99.90;;;-142.72;100.00;65101.41;4952295;28;20452;-72
2022/09/11 07:52:14;;;;;;;19.57;12.70;;;17.00;1.00;;;-142.72;100.00;65101.41;4962709;28;20526;-73
2022/09/11 07:54:51;;;;;;;18.60;12.67;;;17.00;1.00;;;-142.72;100.00;65101.41;4959465;28;20487;-73
2022/09/11 07:57:26;;;;;;;17.93;11.83;;;17.10;1.00;;;-142.72;100.00;65101.41;4949345;29;20827;-72
2022/09/11 07:59:55;;;;;;;22.37;13.10;;;17.40;99.90;;;-142.72;100.00;65101.41;4936975;29;20464;-73
2022/09/11 08:02:24;;;;;;;18.00;12.97;;;17.60;1.00;;;-142.72;100.00;65101.41;4940802;29;20452;-73
2022/09/11 08:04:54;;;;;;;17.10;12.23;;;17.60;1.00;;;-142.72;100.00;65101.41;4959854;28;20503;-72
2022/09/11 08:07:24;;;;;;;18.57;12.30;;;17.60;1.00;;;-142.72;100.00;65101.41;4956893;28;20482;-72
2022/09/11 08:09:54;;;;;;;17.47;12.80;;;17.60;1.00;;;-142.72;100.00;65101.41;4940476;29;20524;-72
2022/09/11 08:12:47;;;;;;;19.73;11.87;;;17.80;1.00;;;-142.72;100.00;65101.41;4938748;29;20937;-72
2022/09/11 08:15:16;;;;;;;21.13;12.03;;;17.80;1.00;;;-142.72;100.00;65101.41;4940411;29;20971;-71
2022/09/11 08:17:45;;;;;;;17.03;11.97;;;17.70;1.00;;;-142.72;100.00;65101.41;4937383;29;20476;-70
2022/09/11 08:20:14;;;;;;;15.90;11.53;;;17.60;1.00;;;-142.72;100.00;65101.41;4933614;29;20695;-73
2022/09/11 08:22:45;;;;;;;18.30;13.40;;;17.80;1.00;;;-142.72;100.00;65101.41;4938763;28;20445;-72
2022/09/11 08:25:15;;;;;;;21.13;12.30;;;18.00;1.00;;;-142.72;100.00;65101.41;4943124;28;20442;-72
2022/09/11 08:27:46;;;;;;;15.70;11.70;;;17.90;99.90;;;-142.72;100.00;65101.41;4949415;29;20800;-72
2022/09/11 08:30:18;;;;;;;14.37;11.43;;;17.70;1.00;;;-142.72;100.00;65101.41;4953786;28;20811;-71
2022/09/11 08:32:47;;;;;;;21.17;12.80;;;17.70;1.00;;;-142.72;100.00;65101.41;4939276;29;20431;-71
2022/09/11 08:35:17;;;;;;;18.93;11.57;;;17.80;1.00;;;-142.72;100.00;65101.41;4934313;29;20480;-73
2022/09/11 08:37:50;;;;;;;17.93;12.17;;;17.70;99.90;;;-142.72;100.00;65101.41;4935911;29;20474;-72
2022/09/11 08:40:24;;;;;;;14.30;12.30;;;17.60;1.00;;;-142.72;100.00;65101.41;4942541;29;20455;-71
2022/09/11 08:43:00;;;;;;;17.20;11.17;;;17.50;1.00;;;-142.72;100.00;65101.41;4937772;29;20771;-73
2022/09/11 08:45:35;;;;;;;20.63;12.53;;;17.40;1.00;;;-142.72;100.00;65101.41;4939052;29;20466;-71
2022/09/11 08:48:08;;;;;;;17.80;12.17;;;17.50;1.00;;;-142.72;100.00;65101.41;4941088;29;20955;-72
2022/09/11 08:50:43;;;;;;;15.30;10.93;;;17.40;1.00;;;-142.72;100.00;65101.41;4942013;29;20768;-72
2022/09/11 08:53:17;;;;;;;14.53;11.00;;;17.50;1.00;;;-142.72;100.00;65101.41;4937441;29;20479;-71
2022/09/11 08:55:58;;;;;;;13.10;10.27;;;17.70;99.90;;;-142.72;100.00;65101.41;4940477;29;20468;-71
2022/09/11 08:58:46;;;;;;;18.63;13.10;;;17.70;99.90;;;-142.72;100.00;65101.41;4946658;29;20471;-72
2022/09/11 09:01:29;;;;;;;15.30;10.03;;;17.70;99.90;;;-142.72;100.00;65101.41;4942347;28;20732;-72
2022/09/11 09:04:31;;;;;;;13.80;10.27;;;17.80;99.90;;;-142.72;100.00;65101.41;4949453;29;20438;-71
2022/09/11 09:07:13;;;;;;;12.80;10.87;;;17.90;99.90;;;-142.72;100.00;65101.41;4942576;29;20975;-72
2022/09/11 09:09:56;;;;;;;12.53;9.30;;;18.20;82.30;;;-142.72;100.00;65101.41;4951043;28;20442;-71
2022/09/11 09:12:38;;;;;;;13.83;10.27;;;18.30;1.00;;;-142.72;100.00;65101.41;4941737;29;20805;-73
2022/09/11 09:15:37;;;;;;;11.40;10.07;;;18.40;1.00;;;-142.72;100.00;65101.41;4947648;29;20463;-71
2022/09/11 09:18:17;;;;;;;14.40;10.30;;;18.10;1.00;;;-142.72;100.00;65101.41;4941024;29;20524;-71
2022/09/11 09:20:56;;;;;;;11.93;9.93;;;17.90;33.40;;;-142.72;100.00;65101.41;4943667;29;20494;-73
2022/09/11 09:23:32;;;;;;;13.53;11.47;;;17.90;99.90;;;-142.72;100.00;65101.41;4955609;28;20484;-73
2022/09/11 09:26:01;;;;;;;15.97;11.43;;;18.00;99.90;;;-142.72;100.00;65101.41;4943354;28;20449;-72
2022/09/11 09:28:39;;;;;;;15.47;11.20;;;18.00;70.80;;;-142.72;100.00;65101.41;4936770;29;20500;-72
2022/09/11 09:31:16;;;;;;;22.93;11.20;;;18.10;91.90;;;-142.72;100.00;65101.41;4939485;29;20490;-72
2022/09/11 09:33:55;;;;;;;17.37;11.13;;;18.20;94.20;;;-142.72;100.00;65101.41;4932758;29;20462;-72
2022/09/11 09:36:33;;;;;;;16.33;10.80;;;18.30;1.00;;;-142.72;100.00;65101.41;4943909;28;20452;-71
2022/09/11 09:39:02;;;;;;;10.30;9.20;;;18.50;1.00;;;-142.72;100.00;65101.41;4950270;28;20473;-72
2022/09/11 09:42:01;;;;;;;12.70;10.30;;;18.70;1.00;;;-142.72;100.00;65101.41;4962243;28;20527;-72
2022/09/11 09:44:52;;;;;;;14.10;10.50;;;19.10;99.90;;;-142.72;100.00;65101.41;4949104;29;20564;-72
2022/09/11 09:47:23;;;;;;;10.97;8.90;;;19.60;99.90;;;-142.72;100.00;65101.41;4945487;29;20445;-72
2022/09/11 09:49:52;;;;;;;11.00;9.53;;;19.80;99.90;;;-142.72;100.00;65101.41;4949191;29;20448;-71
2022/09/11 09:52:24;;;;;;;16.13;8.80;;;19.70;99.90;;;-142.72;100.00;65101.41;4949798;29;20449;-72
2022/09/11 09:54:59;;;;;;;12.93;10.40;;;19.30;99.90;;;-142.72;100.00;65101.41;4953228;29;20482;-71
2022/09/11 09:57:33;;;;;;;13.10;11.77;;;18.70;99.90;;;-142.72;100.00;65101.41;4947434;29;20566;-72
2022/09/11 10:00:14;;;;;;;15.70;11.67;;;18.60;1.00;;;-142.72;100.00;65101.41;4947672;29;20452;-71
2022/09/11 10:02:48;;;;;;;14.23;10.53;;;18.60;1.00;;;-142.72;100.00;65101.41;4948097;29;20420;-71
2022/09/11 10:05:25;;;;;;;12.53;10.50;;;18.50;1.00;;;-142.72;100.00;65101.41;4961969;28;20475;-72
2022/09/11 10:07:57;;;;;;;14.70;11.30;;;18.50;1.00;;;-142.72;100.00;65101.41;4957831;29;20488;-71
2022/09/11 10:10:33;;;;;;;12.43;10.40;;;18.50;1.00;;;-142.72;100.00;65101.41;4950787;29;20444;-71
2022/09/11 10:13:07;;;;;;;14.07;10.50;;;18.60;1.00;;;-142.72;100.00;65101.41;4960144;29;20448;-72
2022/09/11 10:15:49;;;;;;;12.30;9.47;;;18.90;1.00;;;-142.72;100.00;65101.41;4946176;29;20474;-72
2022/09/11 10:18:41;;;;;;;15.43;10.17;;;19.00;99.90;;;-142.72;100.00;65101.41;4958109;28;20472;-72